sensor_id;sensor_type;location;lat;lon;timestamp;temperature;humidity
41760;DHT22;27438;53.396;-6.670;2022-09-27T00:01:16;13.70;70.80
41760;DHT22;27438;53.396;-6.670;2022-09-27T00:03:42;13.60;70.90
41760;DHT22;27438;53.396;-6.670;2022-09-27T00:06:18;13.60;71.00
41760;DHT22;27438;53.396;-6.670;2022-09-27T00:08:44;13.60;71.20
41760;DHT22;27438;53.396;-6.670;2022-09-27T00:11:35;13.50;71.50
41760;DHT22;27438;53.396;-6.670;2022-09-27T00:14:03;13.50;71.60
41760;DHT22;27438;53.396;-6.670;2022-09-27T00:16:32;13.50;71.70
41760;DHT22;27438;53.396;-6.670;2022-09-27T00:19:05;13.50;72.00
41760;DHT22;27438;53.396;-6.670;2022-09-27T00:21:31;13.50;72.10
41760;DHT22;27438;53.396;-6.670;2022-09-27T00:23:58;13.50;72.20
41760;DHT22;27438;53.396;-6.670;2022-09-27T00:26:24;13.50;72.40
41760;DHT22;27438;53.396;-6.670;2022-09-27T00:28:50;13.50;72.40
41760;DHT22;27438;53.396;-6.670;2022-09-27T00:31:24;13.50;72.50
41760;DHT22;27438;53.396;-6.670;2022-09-27T00:33:54;13.50;72.70
41760;DHT22;27438;53.396;-6.670;2022-09-27T00:36:21;13.60;72.80
41760;DHT22;27438;53.396;-6.670;2022-09-27T00:38:47;13.60;72.90
41760;DHT22;27438;53.396;-6.670;2022-09-27T00:41:23;13.60;72.90
41760;DHT22;27438;53.396;-6.670;2022-09-27T00:44:04;13.70;72.80
41760;DHT22;27438;53.396;-6.670;2022-09-27T00:46:55;13.70;72.80
41760;DHT22;27438;53.396;-6.670;2022-09-27T00:52:22;13.80;72.70
41760;DHT22;27438;53.396;-6.670;2022-09-27T00:54:49;13.80;72.60
41760;DHT22;27438;53.396;-6.670;2022-09-27T00:57:16;13.80;72.40
41760;DHT22;27438;53.396;-6.670;2022-09-27T00:59:51;13.80;72.40
41760;DHT22;27438;53.396;-6.670;2022-09-27T01:02:18;13.80;72.30
41760;DHT22;27438;53.396;-6.670;2022-09-27T01:04:44;13.80;72.20
41760;DHT22;27438;53.396;-6.670;2022-09-27T01:07:12;13.80;72.10
41760;DHT22;27438;53.396;-6.670;2022-09-27T01:09:38;13.90;72.20
41760;DHT22;27438;53.396;-6.670;2022-09-27T01:12:15;13.90;72.20
41760;DHT22;27438;53.396;-6.670;2022-09-27T01:15:17;13.80;72.10
41760;DHT22;27438;53.396;-6.670;2022-09-27T01:26:12;13.90;71.80
41760;DHT22;27438;53.396;-6.670;2022-09-27T01:28:50;13.80;71.70
41760;DHT22;27438;53.396;-6.670;2022-09-27T01:31:47;13.90;71.70
41760;DHT22;27438;53.396;-6.670;2022-09-27T01:37:26;14.00;71.50
41760;DHT22;27438;53.396;-6.670;2022-09-27T01:40:03;14.00;71.40
41760;DHT22;27438;53.396;-6.670;2022-09-27T01:43:08;14.00;71.30
41760;DHT22;27438;53.396;-6.670;2022-09-27T01:45:53;14.10;71.20
41760;DHT22;27438;53.396;-6.670;2022-09-27T01:48:30;14.10;71.10
41760;DHT22;27438;53.396;-6.670;2022-09-27T01:51:06;14.10;71.00
41760;DHT22;27438;53.396;-6.670;2022-09-27T01:53:37;14.10;71.00
41760;DHT22;27438;53.396;-6.670;2022-09-27T01:56:06;14.10;71.10
41760;DHT22;27438;53.396;-6.670;2022-09-27T02:01:17;14.10;71.30
41760;DHT22;27438;53.396;-6.670;2022-09-27T02:03:49;14.10;71.30
41760;DHT22;27438;53.396;-6.670;2022-09-27T02:06:29;14.00;71.30
41760;DHT22;27438;53.396;-6.670;2022-09-27T02:09:16;14.00;71.50
41760;DHT22;27438;53.396;-6.670;2022-09-27T02:11:49;14.00;71.60
41760;DHT22;27438;53.396;-6.670;2022-09-27T02:14:26;14.00;71.70
41760;DHT22;27438;53.396;-6.670;2022-09-27T02:16:59;14.00;71.70
41760;DHT22;27438;53.396;-6.670;2022-09-27T02:19:55;14.00;71.80
41760;DHT22;27438;53.396;-6.670;2022-09-27T02:30:12;13.90;71.80
41760;DHT22;27438;53.396;-6.670;2022-09-27T02:32:38;14.00;71.90
41760;DHT22;27438;53.396;-6.670;2022-09-27T02:37:39;14.00;71.90
41760;DHT22;27438;53.396;-6.670;2022-09-27T02:40:05;14.00;71.90
41760;DHT22;27438;53.396;-6.670;2022-09-27T02:42:31;14.00;71.80
41760;DHT22;27438;53.396;-6.670;2022-09-27T02:44:57;14.10;71.80
41760;DHT22;27438;53.396;-6.670;2022-09-27T02:53:25;14.10;71.40
41760;DHT22;27438;53.396;-6.670;2022-09-27T03:01:11;14.10;71.00
41760;DHT22;27438;53.396;-6.670;2022-09-27T03:06:22;14.10;71.10
41760;DHT22;27438;53.396;-6.670;2022-09-27T03:08:49;14.20;71.00
41760;DHT22;27438;53.396;-6.670;2022-09-27T03:11:15;14.10;70.80
41760;DHT22;27438;53.396;-6.670;2022-09-27T03:13:42;14.20;70.80
41760;DHT22;27438;53.396;-6.670;2022-09-27T03:16:08;14.20;70.80
41760;DHT22;27438;53.396;-6.670;2022-09-27T03:18:34;14.20;70.70
41760;DHT22;27438;53.396;-6.670;2022-09-27T03:21:00;14.20;70.70
41760;DHT22;27438;53.396;-6.670;2022-09-27T03:23:26;14.20;70.60
41760;DHT22;27438;53.396;-6.670;2022-09-27T03:25:52;14.20;70.60
41760;DHT22;27438;53.396;-6.670;2022-09-27T03:28:18;14.20;70.60
41760;DHT22;27438;53.396;-6.670;2022-09-27T03:30:44;14.20;70.50
41760;DHT22;27438;53.396;-6.670;2022-09-27T03:33:10;14.20;70.50
41760;DHT22;27438;53.396;-6.670;2022-09-27T03:35:36;14.20;70.50
41760;DHT22;27438;53.396;-6.670;2022-09-27T03:38:03;14.20;70.50
41760;DHT22;27438;53.396;-6.670;2022-09-27T03:40:28;14.20;70.40
41760;DHT22;27438;53.396;-6.670;2022-09-27T03:42:54;14.20;70.40
41760;DHT22;27438;53.396;-6.670;2022-09-27T03:45:20;14.20;70.40
41760;DHT22;27438;53.396;-6.670;2022-09-27T03:47:46;14.10;70.30
41760;DHT22;27438;53.396;-6.670;2022-09-27T03:50:13;14.10;70.40
41760;DHT22;27438;53.396;-6.670;2022-09-27T03:52:40;14.10;70.50
41760;DHT22;27438;53.396;-6.670;2022-09-27T03:55:07;14.10;70.40
41760;DHT22;27438;53.396;-6.670;2022-09-27T03:57:33;14.10;70.50
41760;DHT22;27438;53.396;-6.670;2022-09-27T03:59:59;14.10;70.60
41760;DHT22;27438;53.396;-6.670;2022-09-27T04:02:26;14.10;70.60
41760;DHT22;27438;53.396;-6.670;2022-09-27T04:04:51;14.10;70.60
41760;DHT22;27438;53.396;-6.670;2022-09-27T04:07:17;14.10;70.50
41760;DHT22;27438;53.396;-6.670;2022-09-27T04:09:43;14.10;70.50
41760;DHT22;27438;53.396;-6.670;2022-09-27T04:12:11;14.10;70.40
41760;DHT22;27438;53.396;-6.670;2022-09-27T04:14:37;14.00;70.40
41760;DHT22;27438;53.396;-6.670;2022-09-27T04:17:03;14.00;70.40
41760;DHT22;27438;53.396;-6.670;2022-09-27T04:19:29;14.00;70.50
41760;DHT22;27438;53.396;-6.670;2022-09-27T04:21:55;14.00;70.60
41760;DHT22;27438;53.396;-6.670;2022-09-27T04:24:20;13.90;70.50
41760;DHT22;27438;53.396;-6.670;2022-09-27T04:26:46;13.90;70.60
41760;DHT22;27438;53.396;-6.670;2022-09-27T04:29:13;13.90;70.70
41760;DHT22;27438;53.396;-6.670;2022-09-27T04:31:41;13.90;70.70
41760;DHT22;27438;53.396;-6.670;2022-09-27T04:34:08;13.90;70.80
41760;DHT22;27438;53.396;-6.670;2022-09-27T04:36:34;13.90;70.70
41760;DHT22;27438;53.396;-6.670;2022-09-27T04:39:03;13.90;70.70
41760;DHT22;27438;53.396;-6.670;2022-09-27T04:41:29;14.00;70.80
41760;DHT22;27438;53.396;-6.670;2022-09-27T04:43:55;14.00;70.80
41760;DHT22;27438;53.396;-6.670;2022-09-27T04:46:22;14.00;70.70
41760;DHT22;27438;53.396;-6.670;2022-09-27T04:48:49;14.00;70.70
41760;DHT22;27438;53.396;-6.670;2022-09-27T04:51:15;14.00;70.70
41760;DHT22;27438;53.396;-6.670;2022-09-27T04:53:45;14.00;70.70
41760;DHT22;27438;53.396;-6.670;2022-09-27T04:56:12;14.00;70.70
41760;DHT22;27438;53.396;-6.670;2022-09-27T04:58:38;14.00;70.80
41760;DHT22;27438;53.396;-6.670;2022-09-27T05:01:04;14.00;70.80
41760;DHT22;27438;53.396;-6.670;2022-09-27T05:03:31;14.00;70.70
41760;DHT22;27438;53.396;-6.670;2022-09-27T05:05:57;14.10;70.70
41760;DHT22;27438;53.396;-6.670;2022-09-27T05:08:24;14.10;70.70
41760;DHT22;27438;53.396;-6.670;2022-09-27T05:10:49;14.00;70.60
41760;DHT22;27438;53.396;-6.670;2022-09-27T05:13:16;13.90;70.80
41760;DHT22;27438;53.396;-6.670;2022-09-27T05:15:43;13.90;70.90
41760;DHT22;27438;53.396;-6.670;2022-09-27T05:18:08;13.90;71.10
41760;DHT22;27438;53.396;-6.670;2022-09-27T05:20:37;13.90;71.20
41760;DHT22;27438;53.396;-6.670;2022-09-27T05:23:04;13.90;71.30
41760;DHT22;27438;53.396;-6.670;2022-09-27T05:25:31;13.90;71.30
41760;DHT22;27438;53.396;-6.670;2022-09-27T05:27:57;13.90;71.30
41760;DHT22;27438;53.396;-6.670;2022-09-27T05:30:24;13.90;71.30
41760;DHT22;27438;53.396;-6.670;2022-09-27T05:32:50;13.90;71.30
41760;DHT22;27438;53.396;-6.670;2022-09-27T05:35:18;13.90;71.30
41760;DHT22;27438;53.396;-6.670;2022-09-27T05:37:51;13.90;71.30
41760;DHT22;27438;53.396;-6.670;2022-09-27T05:40:20;13.80;71.40
41760;DHT22;27438;53.396;-6.670;2022-09-27T05:42:53;13.90;71.60
41760;DHT22;27438;53.396;-6.670;2022-09-27T05:45:20;13.80;71.60
41760;DHT22;27438;53.396;-6.670;2022-09-27T05:47:57;13.80;71.80
41760;DHT22;27438;53.396;-6.670;2022-09-27T05:50:24;13.80;71.90
41760;DHT22;27438;53.396;-6.670;2022-09-27T05:52:50;13.70;71.90
41760;DHT22;27438;53.396;-6.670;2022-09-27T05:55:16;13.80;71.90
41760;DHT22;27438;53.396;-6.670;2022-09-27T05:57:42;13.80;72.00
41760;DHT22;27438;53.396;-6.670;2022-09-27T06:00:08;13.70;72.00
41760;DHT22;27438;53.396;-6.670;2022-09-27T06:02:37;13.80;72.10
41760;DHT22;27438;53.396;-6.670;2022-09-27T06:05:03;13.70;72.00
41760;DHT22;27438;53.396;-6.670;2022-09-27T06:07:30;13.70;72.10
41760;DHT22;27438;53.396;-6.670;2022-09-27T06:09:56;13.70;72.10
41760;DHT22;27438;53.396;-6.670;2022-09-27T06:12:22;13.80;72.10
41760;DHT22;27438;53.396;-6.670;2022-09-27T06:14:50;13.80;72.00
41760;DHT22;27438;53.396;-6.670;2022-09-27T06:17:16;13.80;72.00
41760;DHT22;27438;53.396;-6.670;2022-09-27T06:19:42;13.80;72.00
41760;DHT22;27438;53.396;-6.670;2022-09-27T06:22:07;13.80;71.90
41760;DHT22;27438;53.396;-6.670;2022-09-27T06:24:33;13.80;72.00
41760;DHT22;27438;53.396;-6.670;2022-09-27T06:26:59;13.80;71.90
41760;DHT22;27438;53.396;-6.670;2022-09-27T06:29:25;13.90;71.90
41760;DHT22;27438;53.396;-6.670;2022-09-27T06:31:50;13.90;71.80
41760;DHT22;27438;53.396;-6.670;2022-09-27T06:34:16;13.90;71.70
41760;DHT22;27438;53.396;-6.670;2022-09-27T06:36:42;14.00;71.70
41760;DHT22;27438;53.396;-6.670;2022-09-27T06:39:07;14.00;71.70
41760;DHT22;27438;53.396;-6.670;2022-09-27T06:41:33;14.00;71.70
41760;DHT22;27438;53.396;-6.670;2022-09-27T06:44:00;13.90;71.70
41760;DHT22;27438;53.396;-6.670;2022-09-27T06:46:29;13.90;71.80
41760;DHT22;27438;53.396;-6.670;2022-09-27T06:48:54;13.90;71.90
41760;DHT22;27438;53.396;-6.670;2022-09-27T06:51:21;13.90;71.80
41760;DHT22;27438;53.396;-6.670;2022-09-27T06:53:47;14.00;72.00
41760;DHT22;27438;53.396;-6.670;2022-09-27T06:56:13;14.00;71.90
41760;DHT22;27438;53.396;-6.670;2022-09-27T06:58:38;14.00;71.90
41760;DHT22;27438;53.396;-6.670;2022-09-27T07:01:27;14.10;72.00
41760;DHT22;27438;53.396;-6.670;2022-09-27T07:03:53;14.00;71.90
41760;DHT22;27438;53.396;-6.670;2022-09-27T07:06:21;14.10;72.00
41760;DHT22;27438;53.396;-6.670;2022-09-27T07:08:52;14.10;72.10
41760;DHT22;27438;53.396;-6.670;2022-09-27T07:11:18;14.10;72.10
41760;DHT22;27438;53.396;-6.670;2022-09-27T07:13:44;14.10;72.10
41760;DHT22;27438;53.396;-6.670;2022-09-27T07:16:11;14.10;72.10
41760;DHT22;27438;53.396;-6.670;2022-09-27T07:18:38;14.10;72.20
41760;DHT22;27438;53.396;-6.670;2022-09-27T07:21:04;14.10;72.20
41760;DHT22;27438;53.396;-6.670;2022-09-27T07:23:29;14.20;72.30
41760;DHT22;27438;53.396;-6.670;2022-09-27T07:25:55;14.20;72.30
41760;DHT22;27438;53.396;-6.670;2022-09-27T07:28:27;14.30;72.30
41760;DHT22;27438;53.396;-6.670;2022-09-27T07:30:56;14.30;72.20
41760;DHT22;27438;53.396;-6.670;2022-09-27T07:33:22;14.30;72.30
41760;DHT22;27438;53.396;-6.670;2022-09-27T07:35:47;14.30;72.40
41760;DHT22;27438;53.396;-6.670;2022-09-27T07:38:13;14.40;72.40
41760;DHT22;27438;53.396;-6.670;2022-09-27T07:40:40;14.50;72.40
41760;DHT22;27438;53.396;-6.670;2022-09-27T07:43:07;14.60;72.10
41760;DHT22;27438;53.396;-6.670;2022-09-27T07:45:34;14.60;71.90
41760;DHT22;27438;53.396;-6.670;2022-09-27T07:48:02;14.60;71.90
41760;DHT22;27438;53.396;-6.670;2022-09-27T07:50:28;14.60;71.90
41760;DHT22;27438;53.396;-6.670;2022-09-27T07:52:54;14.70;71.90
41760;DHT22;27438;53.396;-6.670;2022-09-27T07:55:20;14.70;71.80
41760;DHT22;27438;53.396;-6.670;2022-09-27T07:57:46;14.70;71.70
41760;DHT22;27438;53.396;-6.670;2022-09-27T08:00:15;14.80;71.70
41760;DHT22;27438;53.396;-6.670;2022-09-27T08:02:41;14.80;71.30
41760;DHT22;27438;53.396;-6.670;2022-09-27T08:05:08;14.80;71.10
41760;DHT22;27438;53.396;-6.670;2022-09-27T08:07:34;14.80;71.40
41760;DHT22;27438;53.396;-6.670;2022-09-27T08:10:00;14.80;71.50
41760;DHT22;27438;53.396;-6.670;2022-09-27T08:12:31;14.80;71.50
41760;DHT22;27438;53.396;-6.670;2022-09-27T08:14:57;14.90;71.40
41760;DHT22;27438;53.396;-6.670;2022-09-27T08:17:27;14.90;71.40
41760;DHT22;27438;53.396;-6.670;2022-09-27T08:19:53;15.00;71.30
41760;DHT22;27438;53.396;-6.670;2022-09-27T08:22:19;15.10;71.30
41760;DHT22;27438;53.396;-6.670;2022-09-27T08:24:46;15.10;71.10
41760;DHT22;27438;53.396;-6.670;2022-09-27T08:27:12;15.20;71.20
41760;DHT22;27438;53.396;-6.670;2022-09-27T08:29:38;15.30;70.90
41760;DHT22;27438;53.396;-6.670;2022-09-27T08:32:09;15.40;70.70
41760;DHT22;27438;53.396;-6.670;2022-09-27T08:34:36;15.50;70.70
41760;DHT22;27438;53.396;-6.670;2022-09-27T08:37:02;15.60;70.50
41760;DHT22;27438;53.396;-6.670;2022-09-27T08:39:28;15.70;70.10
41760;DHT22;27438;53.396;-6.670;2022-09-27T08:47:04;15.90;69.50
41760;DHT22;27438;53.396;-6.670;2022-09-27T08:49:38;15.90;69.30
41760;DHT22;27438;53.396;-6.670;2022-09-27T08:52:10;16.00;69.20
41760;DHT22;27438;53.396;-6.670;2022-09-27T08:54:36;16.00;68.80
41760;DHT22;27438;53.396;-6.670;2022-09-27T08:57:09;16.00;68.80
41760;DHT22;27438;53.396;-6.670;2022-09-27T08:59:41;16.00;68.80
41760;DHT22;27438;53.396;-6.670;2022-09-27T09:02:26;16.10;68.50
41760;DHT22;27438;53.396;-6.670;2022-09-27T09:04:59;16.10;68.30
41760;DHT22;27438;53.396;-6.670;2022-09-27T09:12:52;16.20;68.10
41760;DHT22;27438;53.396;-6.670;2022-09-27T09:26:49;16.30;67.80
41760;DHT22;27438;53.396;-6.670;2022-09-27T09:30:00;16.30;67.60
41760;DHT22;27438;53.396;-6.670;2022-09-27T09:35:25;16.40;67.60
41760;DHT22;27438;53.396;-6.670;2022-09-27T09:37:56;16.40;67.60
41760;DHT22;27438;53.396;-6.670;2022-09-27T09:40:46;16.50;67.70
41760;DHT22;27438;53.396;-6.670;2022-09-27T09:43:19;16.50;67.70
41760;DHT22;27438;53.396;-6.670;2022-09-27T09:46:17;16.60;67.70
41760;DHT22;27438;53.396;-6.670;2022-09-27T09:48:56;16.60;67.70
41760;DHT22;27438;53.396;-6.670;2022-09-27T09:51:25;16.70;67.50
41760;DHT22;27438;53.396;-6.670;2022-09-27T09:54:07;16.70;67.50
41760;DHT22;27438;53.396;-6.670;2022-09-27T09:56:40;16.80;67.10
41760;DHT22;27438;53.396;-6.670;2022-09-27T09:59:41;16.70;67.00
41760;DHT22;27438;53.396;-6.670;2022-09-27T10:02:27;16.60;67.10
41760;DHT22;27438;53.396;-6.670;2022-09-27T10:04:56;16.60;67.50
41760;DHT22;27438;53.396;-6.670;2022-09-27T10:07:22;16.50;67.50
41760;DHT22;27438;53.396;-6.670;2022-09-27T10:09:50;16.50;67.70
41760;DHT22;27438;53.396;-6.670;2022-09-27T10:12:16;16.40;67.60
41760;DHT22;27438;53.396;-6.670;2022-09-27T10:14:45;16.40;67.70
41760;DHT22;27438;53.396;-6.670;2022-09-27T10:17:14;16.40;68.60
41760;DHT22;27438;53.396;-6.670;2022-09-27T10:19:41;16.50;68.10
41760;DHT22;27438;53.396;-6.670;2022-09-27T10:22:31;16.50;68.20
41760;DHT22;27438;53.396;-6.670;2022-09-27T10:25:06;16.60;67.70
41760;DHT22;27438;53.396;-6.670;2022-09-27T10:27:45;16.70;67.60
41760;DHT22;27438;53.396;-6.670;2022-09-27T10:30:26;16.80;67.40
41760;DHT22;27438;53.396;-6.670;2022-09-27T10:32:55;16.90;67.00
41760;DHT22;27438;53.396;-6.670;2022-09-27T10:35:33;16.90;66.30
41760;DHT22;27438;53.396;-6.670;2022-09-27T10:38:20;16.80;66.10
41760;DHT22;27438;53.396;-6.670;2022-09-27T10:40:50;16.80;66.10
41760;DHT22;27438;53.396;-6.670;2022-09-27T10:43:30;16.80;65.80
41760;DHT22;27438;53.396;-6.670;2022-09-27T10:46:09;16.70;66.20
41760;DHT22;27438;53.396;-6.670;2022-09-27T10:48:38;16.60;66.30
41760;DHT22;27438;53.396;-6.670;2022-09-27T10:51:19;16.60;66.50
41760;DHT22;27438;53.396;-6.670;2022-09-27T10:53:47;16.70;66.50
41760;DHT22;27438;53.396;-6.670;2022-09-27T10:56:22;16.70;66.40
41760;DHT22;27438;53.396;-6.670;2022-09-27T10:58:48;16.60;66.40
41760;DHT22;27438;53.396;-6.670;2022-09-27T11:01:14;16.60;66.40
41760;DHT22;27438;53.396;-6.670;2022-09-27T11:03:56;16.60;66.50
41760;DHT22;27438;53.396;-6.670;2022-09-27T11:08:53;16.60;66.80
41760;DHT22;27438;53.396;-6.670;2022-09-27T11:11:25;16.70;65.90
41760;DHT22;27438;53.396;-6.670;2022-09-27T11:14:05;16.60;65.50
41760;DHT22;27438;53.396;-6.670;2022-09-27T11:20:10;16.80;65.80
41760;DHT22;27438;53.396;-6.670;2022-09-27T11:31:47;17.10;65.50
41760;DHT22;27438;53.396;-6.670;2022-09-27T11:40:07;17.10;65.20
41760;DHT22;27438;53.396;-6.670;2022-09-27T11:45:25;17.40;64.90
41760;DHT22;27438;53.396;-6.670;2022-09-27T11:48:21;17.50;64.40
41760;DHT22;27438;53.396;-6.670;2022-09-27T11:53:52;17.60;64.10
41760;DHT22;27438;53.396;-6.670;2022-09-27T12:07:25;17.60;63.80
41760;DHT22;27438;53.396;-6.670;2022-09-27T12:09:58;17.50;64.00
41760;DHT22;27438;53.396;-6.670;2022-09-27T12:12:28;17.50;64.40
41760;DHT22;27438;53.396;-6.670;2022-09-27T12:14:59;17.50;63.90
41760;DHT22;27438;53.396;-6.670;2022-09-27T12:17:29;17.40;63.70
41760;DHT22;27438;53.396;-6.670;2022-09-27T12:19:58;17.30;64.00
41760;DHT22;27438;53.396;-6.670;2022-09-27T12:22:38;17.20;64.60
41760;DHT22;27438;53.396;-6.670;2022-09-27T12:25:04;17.20;64.80
41760;DHT22;27438;53.396;-6.670;2022-09-27T12:27:42;17.30;64.70
41760;DHT22;27438;53.396;-6.670;2022-09-27T12:30:13;17.30;64.60
41760;DHT22;27438;53.396;-6.670;2022-09-27T12:33:03;17.40;64.50
